Time;durP1;ratioP1;P1;durP2;ratioP2;P2;SDS_P1;SDS_P2;PMS_P1;PMS_P2;Temp;Humidity;BMP_temperature;BMP_pressure;BME280_temperature;BME280_humidity;BME280_pressure;Samples;Min_cycle;Max_cycle;Signal;HPM_P1;HPM_P2
2022/12/05 00:01:26;;;;;;;65.13;29.37;;;;;;;;;;5010876;28;20229;-67
2022/12/05 00:03:54;;;;;;;68.37;31.70;;;;;;;;;;5016995;28;20213;-68
2022/12/05 00:06:21;;;;;;;65.60;30.00;;;;;;;;;;5012025;28;20498;-67
2022/12/05 00:08:47;;;;;;;63.67;29.33;;;;;;;;;;5021409;28;20179;-68
2022/12/05 00:11:16;;;;;;;66.20;31.47;;;;;;;;;;5013370;28;20195;-67
2022/12/05 00:13:42;;;;;;;66.47;29.43;;;;;;;;;;5012866;28;20191;-68
2022/12/05 00:16:09;;;;;;;63.87;29.57;;;;;;;;;;5013864;28;20189;-68
2022/12/05 00:18:35;;;;;;;64.57;29.07;;;;;;;;;;5028133;28;20185;-68
2022/12/05 00:21:00;;;;;;;61.10;28.93;;;;;;;;;;5028449;28;20482;-68
2022/12/05 00:23:26;;;;;;;63.97;29.53;;;;;;;;;;5035122;28;20204;-68
2022/12/05 00:25:51;;;;;;;65.87;28.80;;;;;;;;;;5040221;28;20229;-67
2022/12/05 00:28:16;;;;;;;61.87;29.67;;;;;;;;;;5032974;28;20186;-68
2022/12/05 00:30:41;;;;;;;63.40;30.03;;;;;;;;;;5027755;28;20213;-68
2022/12/05 00:33:07;;;;;;;64.60;29.67;;;;;;;;;;5025712;28;20198;-67
2022/12/05 00:35:33;;;;;;;65.83;27.83;;;;;;;;;;5042006;28;20214;-68
2022/12/05 00:37:58;;;;;;;64.53;29.63;;;;;;;;;;5029630;28;20190;-68
2022/12/05 00:40:23;;;;;;;60.73;28.10;;;;;;;;;;5027793;28;20320;-68
2022/12/05 00:42:49;;;;;;;66.87;31.20;;;;;;;;;;5026968;28;20182;-68
2022/12/05 00:45:14;;;;;;;71.53;30.80;;;;;;;;;;5026464;28;20230;-68
2022/12/05 00:47:39;;;;;;;67.30;29.47;;;;;;;;;;5027506;28;20216;-68
2022/12/05 00:50:05;;;;;;;61.17;28.27;;;;;;;;;;5026420;28;20354;-68
2022/12/05 00:52:31;;;;;;;66.87;29.97;;;;;;;;;;5020596;28;20524;-68
2022/12/05 00:54:56;;;;;;;64.37;28.87;;;;;;;;;;5029475;28;20209;-68
2022/12/05 00:57:22;;;;;;;62.10;28.17;;;;;;;;;;5025930;28;20200;-68
2022/12/05 00:59:47;;;;;;;66.97;29.97;;;;;;;;;;5017472;28;20241;-68
2022/12/05 01:02:12;;;;;;;61.50;27.77;;;;;;;;;;5022267;28;20218;-68
2022/12/05 01:04:38;;;;;;;64.40;29.63;;;;;;;;;;5016008;28;20222;-68
2022/12/05 01:07:03;;;;;;;70.00;30.20;;;;;;;;;;5026357;28;20186;-68
2022/12/05 01:09:29;;;;;;;63.50;28.80;;;;;;;;;;5030524;28;20220;-67
2022/12/05 01:11:55;;;;;;;63.50;29.83;;;;;;;;;;5022404;28;20190;-68
2022/12/05 01:14:22;;;;;;;61.60;28.07;;;;;;;;;;5026637;28;20703;-68
2022/12/05 01:16:49;;;;;;;65.87;29.27;;;;;;;;;;5026852;28;20214;-68
2022/12/05 01:19:24;;;;;;;67.53;30.30;;;;;;;;;;5026401;28;20580;-68
2022/12/05 01:21:50;;;;;;;62.30;29.63;;;;;;;;;;5012875;28;20174;-68
2022/12/05 01:24:17;;;;;;;68.83;31.10;;;;;;;;;;5028310;28;20212;-68
2022/12/05 01:26:44;;;;;;;66.67;30.93;;;;;;;;;;5027158;28;20178;-68
2022/12/05 01:29:12;;;;;;;64.10;29.80;;;;;;;;;;5026857;28;20185;-68
2022/12/05 01:31:38;;;;;;;70.50;32.47;;;;;;;;;;5025981;28;20208;-68
2022/12/05 01:34:05;;;;;;;73.53;32.70;;;;;;;;;;5026567;28;20611;-68
2022/12/05 01:36:31;;;;;;;74.77;31.60;;;;;;;;;;5025274;28;20209;-68
2022/12/05 01:38:57;;;;;;;68.27;32.63;;;;;;;;;;5026854;28;20295;-68
2022/12/05 01:41:25;;;;;;;70.53;31.77;;;;;;;;;;5027727;28;20640;-68
2022/12/05 01:44:00;;;;;;;70.00;32.30;;;;;;;;;;5039347;28;20190;-68
2022/12/05 01:46:28;;;;;;;70.40;31.87;;;;;;;;;;5024888;28;20476;-68
2022/12/05 01:48:59;;;;;;;74.77;33.60;;;;;;;;;;5036424;28;20190;-68
2022/12/05 01:51:25;;;;;;;70.93;32.77;;;;;;;;;;5023590;28;20642;-68
2022/12/05 01:53:50;;;;;;;71.37;32.83;;;;;;;;;;5025503;28;20182;-68
2022/12/05 01:56:17;;;;;;;75.63;33.10;;;;;;;;;;5024962;28;20329;-68
2022/12/05 01:58:43;;;;;;;76.70;32.90;;;;;;;;;;5034134;28;20194;-68
2022/12/05 02:01:11;;;;;;;73.33;32.50;;;;;;;;;;5030191;28;20713;-68
2022/12/05 02:03:37;;;;;;;76.60;34.23;;;;;;;;;;5024154;28;20186;-67
2022/12/05 02:06:02;;;;;;;70.00;32.30;;;;;;;;;;5026222;28;20193;-68
2022/12/05 02:08:28;;;;;;;70.60;31.63;;;;;;;;;;5027853;28;20186;-68
2022/12/05 02:10:56;;;;;;;66.50;31.57;;;;;;;;;;5025008;28;20537;-66
2022/12/05 02:13:33;;;;;;;74.20;32.33;;;;;;;;;;5019882;28;20186;-68
2022/12/05 02:16:01;;;;;;;62.50;29.90;;;;;;;;;;5013839;28;20233;-68
2022/12/05 02:18:52;;;;;;;70.60;31.17;;;;;;;;;;5037928;28;20243;-68
2022/12/05 02:21:39;;;;;;;73.17;31.10;;;;;;;;;;5026752;28;20542;-68
2022/12/05 02:24:52;;;;;;;67.20;30.13;;;;;;;;;;5025519;28;20197;-68
2022/12/05 02:27:48;;;;;;;68.10;30.43;;;;;;;;;;4968482;28;20196;-68
2022/12/05 02:30:24;;;;;;;65.70;29.23;;;;;;;;;;5025816;28;20186;-68
2022/12/05 02:33:05;;;;;;;61.87;28.40;;;;;;;;;;5026180;28;20617;-67
2022/12/05 02:35:34;;;;;;;67.50;28.60;;;;;;;;;;5026378;28;20262;-68
2022/12/05 02:38:28;;;;;;;61.27;28.47;;;;;;;;;;5025093;28;20189;-67
2022/12/05 02:41:18;;;;;;;66.90;29.73;;;;;;;;;;5017537;28;20213;-68
2022/12/05 02:43:55;;;;;;;62.40;27.20;;;;;;;;;;5012286;28;20171;-67
2022/12/05 02:46:25;;;;;;;64.93;28.90;;;;;;;;;;5026992;28;20178;-68
2022/12/05 02:48:54;;;;;;;61.30;29.20;;;;;;;;;;5024292;28;20182;-67
2022/12/05 02:51:22;;;;;;;59.10;27.87;;;;;;;;;;5027630;28;20190;-67
2022/12/05 02:53:49;;;;;;;63.47;29.33;;;;;;;;;;5021927;28;20672;-67
2022/12/05 02:56:14;;;;;;;58.23;27.97;;;;;;;;;;5029471;28;20187;-67
2022/12/05 02:58:47;;;;;;;63.67;26.87;;;;;;;;;;5024861;28;20189;-68
2022/12/05 03:01:14;;;;;;;62.63;28.37;;;;;;;;;;5018279;28;20237;-67
2022/12/05 03:03:39;;;;;;;62.20;28.67;;;;;;;;;;5013259;28;20190;-67
2022/12/05 03:06:14;;;;;;;61.40;27.97;;;;;;;;;;5026186;28;20205;-67
2022/12/05 03:08:57;;;;;;;64.90;29.10;;;;;;;;;;5029720;28;20194;-67
2022/12/05 03:11:22;;;;;;;61.87;27.70;;;;;;;;;;5024376;28;20327;-67
2022/12/05 03:13:51;;;;;;;64.00;28.70;;;;;;;;;;5024248;28;20269;-67
2022/12/05 03:16:26;;;;;;;58.80;27.60;;;;;;;;;;5021067;28;20189;-67
2022/12/05 03:18:56;;;;;;;62.03;28.53;;;;;;;;;;5023314;28;20280;-67
2022/12/05 03:21:33;;;;;;;61.57;28.80;;;;;;;;;;5023528;28;20182;-67
2022/12/05 03:24:05;;;;;;;63.80;28.93;;;;;;;;;;5020473;28;20336;-67
2022/12/05 03:26:40;;;;;;;70.07;30.20;;;;;;;;;;5034183;28;20269;-68
2022/12/05 03:29:17;;;;;;;63.67;29.87;;;;;;;;;;5026261;28;20687;-68
2022/12/05 03:31:54;;;;;;;61.70;28.97;;;;;;;;;;5026221;28;20185;-67
2022/12/05 03:34:30;;;;;;;63.37;29.03;;;;;;;;;;5026543;28;20251;-68
2022/12/05 03:36:58;;;;;;;68.20;30.63;;;;;;;;;;5028737;28;20239;-68
2022/12/05 03:39:30;;;;;;;64.20;29.97;;;;;;;;;;5025410;28;20206;-67
2022/12/05 03:42:12;;;;;;;60.77;28.63;;;;;;;;;;5031126;28;20664;-67
2022/12/05 03:44:58;;;;;;;63.03;30.43;;;;;;;;;;5025788;28;20264;-68
2022/12/05 03:47:49;;;;;;;67.57;30.07;;;;;;;;;;5029344;28;20568;-67
2022/12/05 03:50:23;;;;;;;65.07;29.03;;;;;;;;;;5016815;28;20183;-67
2022/12/05 03:53:05;;;;;;;61.87;29.00;;;;;;;;;;5025019;28;20194;-68
2022/12/05 03:55:35;;;;;;;57.30;28.90;;;;;;;;;;5019338;28;20196;-67
2022/12/05 03:58:07;;;;;;;63.47;30.53;;;;;;;;;;5023688;28;20190;-68
2022/12/05 04:00:36;;;;;;;62.17;29.57;;;;;;;;;;5015282;28;20210;-67
2022/12/05 04:03:13;;;;;;;59.30;27.97;;;;;;;;;;5024492;28;20186;-67
2022/12/05 04:05:47;;;;;;;57.97;28.37;;;;;;;;;;5021507;28;20294;-68
2022/12/05 04:08:19;;;;;;;60.93;30.53;;;;;;;;;;5023059;28;20204;-67
2022/12/05 04:10:48;;;;;;;59.53;29.37;;;;;;;;;;5014510;28;20285;-67
2022/12/05 04:13:22;;;;;;;59.80;29.03;;;;;;;;;;5022213;28;20187;-68
2022/12/05 04:18:58;;;;;;;60.07;28.27;;;;;;;;;;5021406;28;20517;-68
2022/12/05 04:21:38;;;;;;;56.90;27.87;;;;;;;;;;5022216;28;20645;-67
2022/12/05 04:27:20;;;;;;;59.93;29.40;;;;;;;;;;5014350;28;20209;-67
2022/12/05 04:30:07;;;;;;;62.33;29.90;;;;;;;;;;5028215;28;20194;-68
2022/12/05 04:32:47;;;;;;;58.23;29.03;;;;;;;;;;5022962;28;20194;-67
2022/12/05 04:35:18;;;;;;;55.53;29.00;;;;;;;;;;5025442;28;20901;-68
2022/12/05 04:37:46;;;;;;;60.67;30.03;;;;;;;;;;5021479;28;20286;-68
2022/12/05 04:40:28;;;;;;;58.93;28.50;;;;;;;;;;5020113;28;20194;-68
2022/12/05 04:42:55;;;;;;;59.70;30.27;;;;;;;;;;5032525;28;20213;-67
2022/12/05 04:45:23;;;;;;;56.33;29.60;;;;;;;;;;5033141;28;20201;-67
2022/12/05 04:47:54;;;;;;;59.20;29.63;;;;;;;;;;5025600;28;20190;-68
2022/12/05 04:50:22;;;;;;;52.10;28.60;;;;;;;;;;5019916;28;20199;-68
2022/12/05 04:52:50;;;;;;;52.70;28.23;;;;;;;;;;5019668;28;20179;-68
2022/12/05 04:55:24;;;;;;;56.47;28.43;;;;;;;;;;5016551;28;20179;-67
2022/12/05 04:58:10;;;;;;;53.63;28.37;;;;;;;;;;5024105;28;20205;-67
2022/12/05 05:00:49;;;;;;;54.40;27.17;;;;;;;;;;5020125;28;20245;-67
2022/12/05 05:03:20;;;;;;;62.37;29.90;;;;;;;;;;5013251;28;20190;-67
2022/12/05 05:05:51;;;;;;;57.73;28.23;;;;;;;;;;5018293;28;20205;-67
2022/12/05 05:08:24;;;;;;;54.00;27.97;;;;;;;;;;5013498;28;20214;-68
2022/12/05 05:11:12;;;;;;;56.63;28.40;;;;;;;;;;5021178;28;20190;-67
2022/12/05 05:13:37;;;;;;;57.57;27.50;;;;;;;;;;5025746;28;20567;-67
2022/12/05 05:16:03;;;;;;;55.23;27.40;;;;;;;;;;5026026;28;20186;-67
2022/12/05 05:18:29;;;;;;;56.37;29.17;;;;;;;;;;5017805;28;20217;-67
2022/12/05 05:20:54;;;;;;;51.63;27.80;;;;;;;;;;5026491;28;20225;-67
2022/12/05 05:23:19;;;;;;;53.33;27.93;;;;;;;;;;5021876;28;20271;-67
2022/12/05 05:25:45;;;;;;;52.03;27.90;;;;;;;;;;5021506;28;20207;-67
2022/12/05 05:28:10;;;;;;;54.90;27.73;;;;;;;;;;5015769;28;20194;-67
2022/12/05 05:30:35;;;;;;;55.27;29.47;;;;;;;;;;5023080;28;20185;-68
2022/12/05 05:33:01;;;;;;;58.47;27.60;;;;;;;;;;5032368;28;20220;-68
2022/12/05 05:35:26;;;;;;;50.67;27.27;;;;;;;;;;5023641;28;20183;-67
2022/12/05 05:37:51;;;;;;;52.50;26.83;;;;;;;;;;5019285;28;20190;-68
2022/12/05 05:40:17;;;;;;;51.80;25.50;;;;;;;;;;5011417;28;20570;-68
2022/12/05 05:42:47;;;;;;;49.67;26.43;;;;;;;;;;5014093;28;20186;-68
2022/12/05 05:45:14;;;;;;;51.40;26.47;;;;;;;;;;5009719;28;20535;-67
2022/12/05 05:47:41;;;;;;;48.00;26.10;;;;;;;;;;5011793;28;20178;-68
2022/12/05 05:50:08;;;;;;;53.07;25.30;;;;;;;;;;5009292;28;20211;-67
2022/12/05 05:52:36;;;;;;;49.83;26.37;;;;;;;;;;5011754;28;20182;-68
2022/12/05 05:55:03;;;;;;;53.40;25.97;;;;;;;;;;5025258;28;20621;-67
2022/12/05 05:57:30;;;;;;;51.97;25.83;;;;;;;;;;5015802;28;20194;-67
2022/12/05 05:59:55;;;;;;;49.30;25.03;;;;;;;;;;5017474;28;20201;-68
2022/12/05 06:02:21;;;;;;;50.60;24.97;;;;;;;;;;5014572;28;20305;-68
2022/12/05 06:04:46;;;;;;;50.60;25.77;;;;;;;;;;5024862;28;20241;-68
2022/12/05 06:07:11;;;;;;;48.13;25.10;;;;;;;;;;5026674;28;20752;-68
2022/12/05 06:09:37;;;;;;;49.10;26.20;;;;;;;;;;5017224;28;20540;-67
2022/12/05 06:12:02;;;;;;;48.93;24.83;;;;;;;;;;5024424;28;20273;-67
2022/12/05 06:14:28;;;;;;;45.50;24.57;;;;;;;;;;5022345;28;20203;-67
2022/12/05 06:16:53;;;;;;;49.50;25.90;;;;;;;;;;5020658;28;20230;-68
2022/12/05 06:19:18;;;;;;;48.20;25.13;;;;;;;;;;5012834;28;20191;-68
2022/12/05 06:21:44;;;;;;;52.70;25.77;;;;;;;;;;5015608;28;20277;-68
2022/12/05 06:24:09;;;;;;;49.13;26.00;;;;;;;;;;5019300;28;20285;-68
2022/12/05 06:26:35;;;;;;;49.03;24.60;;;;;;;;;;5027127;28;20186;-68
2022/12/05 06:29:00;;;;;;;48.90;25.30;;;;;;;;;;5022908;28;20182;-68
2022/12/05 06:31:27;;;;;;;45.03;25.57;;;;;;;;;;5026695;28;20277;-67
2022/12/05 06:33:52;;;;;;;49.00;25.87;;;;;;;;;;5019566;28;20577;-68
2022/12/05 06:36:21;;;;;;;49.63;25.07;;;;;;;;;;5018096;28;20189;-68
2022/12/05 06:38:46;;;;;;;45.97;25.40;;;;;;;;;;5020873;28;20280;-67
2022/12/05 06:41:18;;;;;;;53.27;25.93;;;;;;;;;;5023415;28;20305;-69
2022/12/05 06:43:44;;;;;;;49.27;25.73;;;;;;;;;;5017717;28;20194;-68
2022/12/05 06:46:11;;;;;;;47.27;25.60;;;;;;;;;;4323571;28;10000730;-68
2022/12/05 06:48:37;;;;;;;46.00;23.93;;;;;;;;;;5022059;28;20187;-68
2022/12/05 06:51:03;;;;;;;47.00;24.27;;;;;;;;;;5018835;28;20671;-68
2022/12/05 06:53:28;;;;;;;50.33;25.53;;;;;;;;;;5023973;28;20272;-68
2022/12/05 06:55:59;;;;;;;47.57;25.27;;;;;;;;;;5024634;28;20186;-68
2022/12/05 06:58:24;;;;;;;45.73;25.73;;;;;;;;;;5021098;28;20202;-68
2022/12/05 07:03:34;;;;;;;52.67;26.33;;;;;;;;;;5025602;28;20830;-68
2022/12/05 07:06:05;;;;;;;47.93;25.10;;;;;;;;;;5020256;28;20221;-68
2022/12/05 07:08:31;;;;;;;49.00;24.70;;;;;;;;;;5022262;28;20179;-68
2022/12/05 07:10:57;;;;;;;51.83;26.43;;;;;;;;;;5024027;28;20186;-68
2022/12/05 07:13:22;;;;;;;54.63;26.33;;;;;;;;;;5028835;28;20719;-68
2022/12/05 07:15:48;;;;;;;53.67;26.00;;;;;;;;;;5023699;28;20194;-68
2022/12/05 07:18:15;;;;;;;54.47;26.53;;;;;;;;;;5008131;28;20566;-69
2022/12/05 07:20:41;;;;;;;55.27;26.87;;;;;;;;;;5027953;28;20252;-68
2022/12/05 07:23:06;;;;;;;52.47;26.27;;;;;;;;;;5017783;28;20202;-67
2022/12/05 07:25:32;;;;;;;55.70;28.43;;;;;;;;;;5017234;28;20213;-68
2022/12/05 07:27:57;;;;;;;56.53;27.97;;;;;;;;;;5022322;28;20278;-68
2022/12/05 07:30:22;;;;;;;54.40;27.27;;;;;;;;;;5030554;28;20306;-68
2022/12/05 07:32:48;;;;;;;55.17;27.93;;;;;;;;;;5016152;28;20190;-68
2022/12/05 07:35:13;;;;;;;54.77;27.30;;;;;;;;;;5007560;28;20580;-68
2022/12/05 07:37:38;;;;;;;56.77;26.87;;;;;;;;;;5009279;28;20422;-68
2022/12/05 07:40:04;;;;;;;54.57;27.07;;;;;;;;;;5011581;28;20187;-68
2022/12/05 07:42:30;;;;;;;58.63;28.00;;;;;;;;;;5017149;28;20178;-68
2022/12/05 07:44:55;;;;;;;56.27;28.03;;;;;;;;;;5007379;28;20207;-68
2022/12/05 07:47:20;;;;;;;61.07;27.30;;;;;;;;;;5007554;28;20561;-68
2022/12/05 07:49:46;;;;;;;56.33;28.33;;;;;;;;;;5017253;28;20286;-68
2022/12/05 07:52:11;;;;;;;58.30;28.10;;;;;;;;;;5022781;28;20581;-68
2022/12/05 07:54:36;;;;;;;54.37;27.03;;;;;;;;;;5018255;28;20197;-68
2022/12/05 07:57:02;;;;;;;56.83;28.60;;;;;;;;;;5026432;28;20625;-68
2022/12/05 07:59:27;;;;;;;55.60;27.23;;;;;;;;;;5025883;28;20202;-68
2022/12/05 08:01:53;;;;;;;56.30;27.73;;;;;;;;;;5023390;28;20249;-68
2022/12/05 08:04:18;;;;;;;54.37;27.63;;;;;;;;;;5026461;28;20212;-67
2022/12/05 08:06:44;;;;;;;52.60;27.60;;;;;;;;;;5034535;28;20204;-68
2022/12/05 08:09:10;;;;;;;54.53;29.27;;;;;;;;;;5016178;28;20579;-68
2022/12/05 08:11:35;;;;;;;56.47;28.17;;;;;;;;;;5010532;28;20187;-67
2022/12/05 08:14:03;;;;;;;54.20;26.83;;;;;;;;;;5020768;28;20178;-67
2022/12/05 08:16:30;;;;;;;52.03;26.93;;;;;;;;;;5011132;28;20212;-67
2022/12/05 08:19:05;;;;;;;53.03;27.17;;;;;;;;;;5016816;28;20218;-68
2022/12/05 08:21:31;;;;;;;53.20;27.10;;;;;;;;;;5012663;28;20193;-67
2022/12/05 08:23:57;;;;;;;54.93;27.80;;;;;;;;;;5017824;28;20834;-67
2022/12/05 08:26:25;;;;;;;54.87;26.63;;;;;;;;;;5027481;28;20603;-67
2022/12/05 08:28:53;;;;;;;50.80;27.20;;;;;;;;;;5027479;28;20669;-67
2022/12/05 08:31:20;;;;;;;51.40;25.67;;;;;;;;;;5022795;28;20267;-67
2022/12/05 08:33:45;;;;;;;56.70;27.20;;;;;;;;;;5011596;28;20282;-68
2022/12/05 08:36:14;;;;;;;54.57;26.97;;;;;;;;;;5013538;28;20257;-67
2022/12/05 08:38:39;;;;;;;51.97;26.67;;;;;;;;;;5014346;28;20343;-68
2022/12/05 08:41:07;;;;;;;55.17;27.13;;;;;;;;;;5017582;28;20194;-67
2022/12/05 08:43:33;;;;;;;50.03;26.43;;;;;;;;;;5015953;28;20444;-68
2022/12/05 08:45:59;;;;;;;48.13;25.40;;;;;;;;;;5012267;28;20294;-67
2022/12/05 08:48:27;;;;;;;53.93;27.13;;;;;;;;;;5011018;28;20222;-68
2022/12/05 08:50:53;;;;;;;50.77;26.53;;;;;;;;;;5008861;28;20195;-67
2022/12/05 08:53:18;;;;;;;50.87;26.37;;;;;;;;;;5008399;28;20200;-67
2022/12/05 08:55:46;;;;;;;47.83;25.67;;;;;;;;;;5014246;28;20263;-67
2022/12/05 08:58:12;;;;;;;46.40;25.07;;;;;;;;;;5014405;28;20213;-67
2022/12/05 09:00:38;;;;;;;44.93;24.63;;;;;;;;;;5020832;28;20772;-67
2022/12/05 09:03:04;;;;;;;46.13;25.37;;;;;;;;;;5009418;28;20191;-67
2022/12/05 09:05:29;;;;;;;47.60;24.63;;;;;;;;;;5010133;28;20219;-67
2022/12/05 09:07:55;;;;;;;46.33;24.93;;;;;;;;;;5008580;28;20513;-67
2022/12/05 09:10:20;;;;;;;40.83;22.53;;;;;;;;;;5008752;28;20274;-67
2022/12/05 09:12:46;;;;;;;42.33;23.80;;;;;;;;;;5023061;28;20574;-67
2022/12/05 09:15:12;;;;;;;43.00;22.67;;;;;;;;;;5008480;28;20210;-67
2022/12/05 09:17:38;;;;;;;39.60;22.13;;;;;;;;;;5016071;28;20224;-67
2022/12/05 09:20:05;;;;;;;37.67;22.10;;;;;;;;;;5011277;28;20210;-67
2022/12/05 09:22:31;;;;;;;38.77;22.53;;;;;;;;;;5021773;28;20185;-68
2022/12/05 09:24:57;;;;;;;36.27;21.43;;;;;;;;;;5010019;28;20531;-67
2022/12/05 09:27:22;;;;;;;37.87;19.83;;;;;;;;;;5008677;28;20189;-68
2022/12/05 09:29:48;;;;;;;40.17;21.90;;;;;;;;;;5015734;28;20262;-67
2022/12/05 09:32:13;;;;;;;37.93;20.77;;;;;;;;;;5013642;28;20194;-67
2022/12/05 09:34:38;;;;;;;34.73;19.83;;;;;;;;;;5017531;28;20183;-68
2022/12/05 09:37:05;;;;;;;35.27;19.97;;;;;;;;;;5012080;28;20183;-68
2022/12/05 09:39:31;;;;;;;36.80;21.07;;;;;;;;;;5022317;28;20186;-68
2022/12/05 09:42:17;;;;;;;37.83;19.83;;;;;;;;;;5027638;28;20205;-68
2022/12/05 09:45:03;;;;;;;35.73;19.53;;;;;;;;;;5020531;28;20217;-68
2022/12/05 09:47:39;;;;;;;33.30;18.43;;;;;;;;;;5037794;28;20186;-67
2022/12/05 09:50:27;;;;;;;29.30;18.07;;;;;;;;;;5027008;28;20223;-68
2022/12/05 09:53:06;;;;;;;36.33;19.57;;;;;;;;;;5017433;28;20194;-68
2022/12/05 09:55:51;;;;;;;35.07;19.87;;;;;;;;;;5027017;28;20185;-69
2022/12/05 09:58:26;;;;;;;34.90;19.27;;;;;;;;;;5023838;28;20202;-68
2022/12/05 10:00:58;;;;;;;31.43;18.17;;;;;;;;;;5027426;28;20279;-68
2022/12/05 10:03:38;;;;;;;35.10;18.27;;;;;;;;;;5016977;28;20183;-68
2022/12/05 10:06:27;;;;;;;35.10;18.90;;;;;;;;;;5032592;28;20209;-68
2022/12/05 10:09:14;;;;;;;35.63;18.57;;;;;;;;;;5031542;28;20272;-69
2022/12/05 10:11:52;;;;;;;33.83;19.30;;;;;;;;;;5026144;28;20201;-68
2022/12/05 10:14:46;;;;;;;34.77;18.67;;;;;;;;;;5036630;28;20209;-68
2022/12/05 10:17:38;;;;;;;35.10;18.60;;;;;;;;;;5036076;28;20193;-68
2022/12/05 10:20:12;;;;;;;33.73;18.70;;;;;;;;;;5017098;28;20236;-68
2022/12/05 10:22:43;;;;;;;33.47;18.30;;;;;;;;;;5013465;28;20186;-69
2022/12/05 10:25:11;;;;;;;34.33;18.80;;;;;;;;;;5012147;28;20249;-68
2022/12/05 10:27:41;;;;;;;34.37;18.43;;;;;;;;;;5013780;28;20194;-68
2022/12/05 10:30:13;;;;;;;34.33;18.07;;;;;;;;;;5013152;28;20557;-68
2022/12/05 10:32:52;;;;;;;33.23;18.70;;;;;;;;;;5018766;28;20195;-68
2022/12/05 10:35:26;;;;;;;30.83;17.50;;;;;;;;;;5014747;28;20183;-68
2022/12/05 10:37:57;;;;;;;30.97;18.73;;;;;;;;;;5011872;28;20617;-68
2022/12/05 10:40:26;;;;;;;32.77;17.73;;;;;;;;;;5015841;28;20183;-69
2022/12/05 10:42:51;;;;;;;28.90;18.17;;;;;;;;;;5016254;28;20270;-68
2022/12/05 10:45:21;;;;;;;32.80;18.10;;;;;;;;;;5011394;28;20285;-68
2022/12/05 10:47:48;;;;;;;30.47;17.53;;;;;;;;;;5017262;28;20214;-69
2022/12/05 10:50:35;;;;;;;32.10;17.83;;;;;;;;;;5022731;28;20186;-69
2022/12/05 10:53:02;;;;;;;32.10;17.30;;;;;;;;;;5024869;28;20190;-71
2022/12/05 10:55:46;;;;;;;28.00;16.60;;;;;;;;;;5027878;28;20557;-70
2022/12/05 10:58:15;;;;;;;29.87;17.37;;;;;;;;;;5024012;28;20229;-70
2022/12/05 11:00:47;;;;;;;27.40;16.03;;;;;;;;;;5022878;28;20281;-72
2022/12/05 11:03:32;;;;;;;26.10;15.90;;;;;;;;;;5015716;28;20257;-73
2022/12/05 11:06:01;;;;;;;24.43;15.60;;;;;;;;;;5010391;28;20226;-71
2022/12/05 11:08:30;;;;;;;26.03;15.30;;;;;;;;;;5015014;28;20585;-71
2022/12/05 11:11:24;;;;;;;23.77;15.40;;;;;;;;;;5010261;28;20186;-71
2022/12/05 11:14:04;;;;;;;23.83;14.77;;;;;;;;;;5032338;28;20194;-71
2022/12/05 11:16:32;;;;;;;26.83;16.03;;;;;;;;;;5021527;28;20213;-70
2022/12/05 11:19:45;;;;;;;24.07;15.20;;;;;;;;;;5020871;28;20369;-70
2022/12/05 11:22:16;;;;;;;23.47;14.13;;;;;;;;;;5017912;28;20193;-70
2022/12/05 11:24:41;;;;;;;23.80;14.33;;;;;;;;;;5029852;28;20252;-70
2022/12/05 11:27:15;;;;;;;22.67;14.47;;;;;;;;;;5030066;28;20657;-70
2022/12/05 11:29:43;;;;;;;23.33;13.67;;;;;;;;;;5030853;28;20186;-70
2022/12/05 11:32:20;;;;;;;22.47;13.53;;;;;;;;;;5022875;28;20190;-70
2022/12/05 11:34:49;;;;;;;22.73;14.37;;;;;;;;;;5022689;28;20183;-70
2022/12/05 11:37:24;;;;;;;23.73;14.50;;;;;;;;;;5021387;28;20300;-70
2022/12/05 11:39:50;;;;;;;22.03;14.07;;;;;;;;;;5027776;28;20176;-70
2022/12/05 11:42:24;;;;;;;19.80;13.37;;;;;;;;;;5022505;28;20274;-71
2022/12/05 11:44:57;;;;;;;19.50;13.03;;;;;;;;;;5027388;28;20770;-69
2022/12/05 11:47:45;;;;;;;17.33;10.80;;;;;;;;;;5027914;28;20696;-70
2022/12/05 11:50:24;;;;;;;14.93;9.73;;;;;;;;;;5011396;28;20636;-70
2022/12/05 11:52:55;;;;;;;14.70;9.53;;;;;;;;;;5008517;28;20195;-69
2022/12/05 11:55:28;;;;;;;14.17;9.17;;;;;;;;;;5020242;28;21437;-70
2022/12/05 11:58:02;;;;;;;11.93;7.77;;;;;;;;;;5016529;28;20558;-72
2022/12/05 12:00:51;;;;;;;12.47;7.53;;;;;;;;;;5012253;28;20293;-71
2022/12/05 12:03:19;;;;;;;20.07;7.57;;;;;;;;;;5024188;28;20189;-72
2022/12/05 12:05:59;;;;;;;12.30;7.43;;;;;;;;;;5021222;28;20209;-71
2022/12/05 12:08:50;;;;;;;12.83;8.33;;;;;;;;;;5017230;28;20244;-71
2022/12/05 12:11:33;;;;;;;13.93;8.10;;;;;;;;;;4998511;28;20241;-71
2022/12/05 12:14:18;;;;;;;17.33;9.70;;;;;;;;;;5016653;28;20210;-71
2022/12/05 12:17:05;;;;;;;17.27;9.23;;;;;;;;;;5011468;28;20178;-70
2022/12/05 12:19:36;;;;;;;16.80;9.93;;;;;;;;;;5027286;28;20182;-69
2022/12/05 12:22:29;;;;;;;16.10;9.93;;;;;;;;;;5015691;28;20187;-70
2022/12/05 12:25:12;;;;;;;17.40;10.07;;;;;;;;;;5014297;28;20269;-70
2022/12/05 12:27:43;;;;;;;15.93;9.70;;;;;;;;;;5010198;28;20229;-69
2022/12/05 12:30:34;;;;;;;18.67;10.33;;;;;;;;;;5008810;28;20229;-70
2022/12/05 12:33:15;;;;;;;19.57;10.47;;;;;;;;;;5018540;28;20232;-69
2022/12/05 12:35:58;;;;;;;19.47;11.87;;;;;;;;;;5023866;28;20179;-69
2022/12/05 12:38:43;;;;;;;19.70;11.07;;;;;;;;;;5017846;28;20183;-69
2022/12/05 12:41:16;;;;;;;17.40;10.80;;;;;;;;;;5014785;28;20603;-68
2022/12/05 12:44:00;;;;;;;21.10;12.00;;;;;;;;;;5010853;28;20182;-69
2022/12/05 12:46:38;;;;;;;19.70;11.67;;;;;;;;;;5015325;28;20196;-69
2022/12/05 12:49:34;;;;;;;19.03;12.10;;;;;;;;;;5009322;28;20185;-68
2022/12/05 12:52:22;;;;;;;19.40;11.40;;;;;;;;;;5005245;28;20197;-68
2022/12/05 12:54:56;;;;;;;16.13;10.17;;;;;;;;;;5014307;28;20190;-68
2022/12/05 12:57:56;;;;;;;18.77;11.80;;;;;;;;;;5012037;28;20186;-68
2022/12/05 13:00:27;;;;;;;17.20;11.33;;;;;;;;;;5021098;28;20516;-67
2022/12/05 13:02:59;;;;;;;17.53;10.70;;;;;;;;;;5020575;28;20331;-68
2022/12/05 13:05:41;;;;;;;16.70;10.83;;;;;;;;;;5035825;28;20206;-69
2022/12/05 13:08:13;;;;;;;16.57;10.90;;;;;;;;;;5010015;28;20560;-69
2022/12/05 13:10:42;;;;;;;15.00;9.23;;;;;;;;;;5018970;28;20315;-68
2022/12/05 13:13:12;;;;;;;16.37;10.37;;;;;;;;;;5018507;28;20182;-70
2022/12/05 13:15:43;;;;;;;14.97;9.63;;;;;;;;;;5026563;28;20192;-69
2022/12/05 13:18:15;;;;;;;14.33;9.10;;;;;;;;;;5019628;28;20193;-70
2022/12/05 13:20:41;;;;;;;14.33;9.00;;;;;;;;;;5020868;28;20549;-71
2022/12/05 13:23:11;;;;;;;14.50;8.97;;;;;;;;;;5016756;28;20200;-72
2022/12/05 13:25:38;;;;;;;15.03;8.37;;;;;;;;;;5019899;28;20701;-73
2022/12/05 13:28:07;;;;;;;11.90;8.13;;;;;;;;;;5007406;28;20202;-71
2022/12/05 13:30:56;;;;;;;15.37;9.00;;;;;;;;;;5015857;28;20670;-70
2022/12/05 13:33:24;;;;;;;13.07;8.40;;;;;;;;;;5016719;28;20194;-73
2022/12/05 13:44:42;;;;;;;11.97;7.53;;;;;;;;;;5040036;28;20252;-71
2022/12/05 13:47:28;;;;;;;14.00;7.70;;;;;;;;;;5033500;28;20209;-70
2022/12/05 13:50:09;;;;;;;12.67;7.27;;;;;;;;;;5022821;28;20185;-70
2022/12/05 13:53:03;;;;;;;12.50;7.47;;;;;;;;;;5011953;28;20183;-71
2022/12/05 13:55:38;;;;;;;14.07;7.53;;;;;;;;;;5006254;28;20205;-71
2022/12/05 13:58:19;;;;;;;11.07;6.47;;;;;;;;;;5012569;28;20213;-70
2022/12/05 14:00:44;;;;;;;12.93;7.17;;;;;;;;;;5006547;28;20226;-71
2022/12/05 14:03:16;;;;;;;11.90;7.47;;;;;;;;;;5009612;28;20183;-70
2022/12/05 14:05:47;;;;;;;12.67;7.87;;;;;;;;;;5012486;28;20206;-70
2022/12/05 14:08:39;;;;;;;11.47;7.47;;;;;;;;;;5026225;28;20179;-71
2022/12/05 14:11:09;;;;;;;10.90;6.80;;;;;;;;;;5008460;28;20195;-73
2022/12/05 14:13:40;;;;;;;13.67;7.70;;;;;;;;;;5014544;28;20204;-70
2022/12/05 14:16:24;;;;;;;13.43;7.53;;;;;;;;;;5026822;28;20265;-70
2022/12/05 14:19:04;;;;;;;14.13;8.30;;;;;;;;;;5015282;28;20535;-70
2022/12/05 14:21:59;;;;;;;12.47;8.07;;;;;;;;;;5013925;28;20178;-70
2022/12/05 14:24:42;;;;;;;13.83;8.07;;;;;;;;;;5014776;28;20191;-70
2022/12/05 14:27:24;;;;;;;12.43;7.97;;;;;;;;;;5013133;28;20210;-70
2022/12/05 14:30:05;;;;;;;12.33;8.13;;;;;;;;;;5010997;28;20179;-72
2022/12/05 14:32:33;;;;;;;15.20;8.18;;;;;;;;;;4317818;28;10000816;-70
2022/12/05 14:35:13;;;;;;;13.33;8.03;;;;;;;;;;5021602;28;20688;-70
2022/12/05 14:37:42;;;;;;;12.87;8.43;;;;;;;;;;5022756;28;20269;-70
2022/12/05 14:40:22;;;;;;;17.17;8.97;;;;;;;;;;5013675;28;20269;-70
2022/12/05 14:43:15;;;;;;;13.77;8.97;;;;;;;;;;5022040;28;20282;-70
2022/12/05 14:45:49;;;;;;;15.60;8.97;;;;;;;;;;5027985;28;20296;-69
2022/12/05 14:48:14;;;;;;;17.50;10.00;;;;;;;;;;5020403;28;20200;-70
2022/12/05 14:50:44;;;;;;;16.50;9.57;;;;;;;;;;5024839;28;20190;-69
2022/12/05 14:53:21;;;;;;;15.37;9.83;;;;;;;;;;5019629;28;20769;-69
2022/12/05 14:56:03;;;;;;;14.97;10.27;;;;;;;;;;5015360;28;20194;-69
2022/12/05 14:58:49;;;;;;;18.03;10.20;;;;;;;;;;5019850;28;20178;-69
2022/12/05 15:01:19;;;;;;;16.33;9.87;;;;;;;;;;5021509;28;20244;-69
2022/12/05 15:04:06;;;;;;;18.33;9.80;;;;;;;;;;5022901;28;20704;-69